M/y Bob Barker — PC9519 — position and weather

sailwx.info

Track history (hours):
 
Tides and Currents Weather Stations Pressure Air Temp Water Temp Dewpoint Dewpoint Depression Visibility Wind Speed Wind Dir Waves Ship Positions

M/y Bob Barker

Last reported at 2017-Jan-26 05:18 UTC. Time now 2017-Feb-21 23:37 UTC.
Position N 27°42' W 015°20'.
Warning: this ship's position is 26 days out of date.

Length 52 m.

Type: Other ship. MMSI: 246847000.

Date/timePositionNaut miles runAvg speedWind from/ knotsBaromVisibWave heightAir tempDewpointWater temp
2017-Jan-26 05:18N 27°42' W 015°20'7 9.1
2017-Jan-26 04:33N 27°49' W 015°19'9 9.1
2017-Jan-26 03:33N 27°58' W 015°19'9 8.7
2017-Jan-26 02:33N 28°06' W 015°23'3 3.3
2017-Jan-26 01:32N 28°09' W 015°24'0 0.0
2017-Jan-26 00:23N 28°09' W 015°24'0 0.0
2017-Jan-25 23:23N 28°09' W 015°24'0 0.0
2017-Jan-25 22:26N 28°09' W 015°24'0 0.0
2017-Jan-25 21:26N 28°09' W 015°24'0 0.0
2017-Jan-25 20:26N 28°09' W 015°24'0 0.0
2017-Jan-25 19:33N 28°09' W 015°24'0 0.0
2017-Jan-25 18:33N 28°09' W 015°24'2 1.8
2017-Jan-25 17:33N 28°08' W 015°24'0 0.2
2017-Jan-25 16:30N 28°07' W 015°24'0 0.0
2017-Jan-25 15:33N 28°07' W 015°24'0 0.0
2017-Jan-25 14:33N 28°07' W 015°24'0 0.0
2017-Jan-25 13:33N 28°07' W 015°24'0 0.0
2017-Jan-25 12:33N 28°07' W 015°24'0 0.0
2017-Jan-25 11:33N 28°07' W 015°24'0 0.0
2017-Jan-25 10:33N 28°07' W 015°24'0 0.0
2017-Jan-25 09:33N 28°07' W 015°24'0 0.0
2017-Jan-25 08:33N 28°07' W 015°24'0 0.0
2017-Jan-25 07:33N 28°07' W 015°24'0 0.0
2017-Jan-25 06:33N 28°07' W 015°24'0 0.0
2017-Jan-25 05:33N 28°07' W 015°24'0 0.0
2017-Jan-25 04:33N 28°07' W 015°24'0 0.0
2017-Jan-25 03:33N 28°07' W 015°24'0 0.0
2017-Jan-25 02:33N 28°07' W 015°24'0 0.0
2017-Jan-25 01:33N 28°07' W 015°24'0 0.0
2017-Jan-25 00:33N 28°07' W 015°24'0 0.0
2017-Jan-24 23:33N 28°07' W 015°24'0 0.0
2017-Jan-24 22:33N 28°07' W 015°24'0 0.0
2017-Jan-24 21:33N 28°07' W 015°24'0 0.0
2017-Jan-24 20:33N 28°07' W 015°24'0 0.0
2017-Jan-24 19:33N 28°07' W 015°24'0 0.0
2017-Jan-24 18:33N 28°07' W 015°24'0 0.0
2017-Jan-24 16:29N 28°07' W 015°24'0 0.0
2017-Jan-24 15:34N 28°07' W 015°24'0 0.0
2017-Jan-24 14:34N 28°07' W 015°24'0 0.0
2017-Jan-24 13:34N 28°07' W 015°24'0 0.0
2017-Jan-24 12:34N 28°07' W 015°24'0 0.0
2017-Jan-24 11:34N 28°07' W 015°24'0 0.0
2017-Jan-24 10:33N 28°07' W 015°24'0 0.0
2017-Jan-24 09:33N 28°07' W 015°24'0 0.0
2017-Jan-24 08:33N 28°07' W 015°24'0 0.0
2017-Jan-24 07:33N 28°07' W 015°24'0 0.0
2017-Jan-24 06:33N 28°07' W 015°24'0 0.0
2017-Jan-24 05:33N 28°07' W 015°24'0 0.0
2017-Jan-24 04:33N 28°07' W 015°24'0 0.0
2017-Jan-24 03:33N 28°07' W 015°24'0 0.0
2017-Jan-24 02:33N 28°07' W 015°24'0 0.0
2017-Jan-24 01:33N 28°07' W 015°24'0 0.0
2017-Jan-24 00:33N 28°07' W 015°24'0 0.0
2017-Jan-23 23:33N 28°07' W 015°24'0 0.0
2017-Jan-23 22:33N 28°07' W 015°24'0 0.0
2017-Jan-23 21:33N 28°07' W 015°24'0 0.0
2017-Jan-21 20:12N 28°07' W 015°24'0 0.0
2017-Jan-21 18:21N 28°07' W 015°24'  
Track history (hours):
 
Tides and Currents Weather Stations Pressure Air Temp Water Temp Dewpoint Dewpoint Depression Visibility Wind Speed Wind Dir Waves Ship Positions

M/y Bob Barker

Last reported at 2017-Jan-26 05:18 UTC. Time now 2017-Feb-21 23:37 UTC.
Position N 27°42' W 015°20'.
Warning: this ship's position is 26 days out of date.

Length 52 m.

Type: Other ship. MMSI: 246847000.

Date/timePositionNaut miles runAvg speedWind from/ knotsBaromVisibWave heightAir tempDewpointWater temp
2017-Jan-26 05:18N 27°42' W 015°20'7 9.1
2017-Jan-26 04:33N 27°49' W 015°19'9 9.1
2017-Jan-26 03:33N 27°58' W 015°19'9 8.7
2017-Jan-26 02:33N 28°06' W 015°23'3 3.3
2017-Jan-26 01:32N 28°09' W 015°24'0 0.0
2017-Jan-26 00:23N 28°09' W 015°24'0 0.0
2017-Jan-25 23:23N 28°09' W 015°24'0 0.0
2017-Jan-25 22:26N 28°09' W 015°24'0 0.0
2017-Jan-25 21:26N 28°09' W 015°24'0 0.0
2017-Jan-25 20:26N 28°09' W 015°24'0 0.0
2017-Jan-25 19:33N 28°09' W 015°24'0 0.0
2017-Jan-25 18:33N 28°09' W 015°24'2 1.8
2017-Jan-25 17:33N 28°08' W 015°24'0 0.2
2017-Jan-25 16:30N 28°07' W 015°24'0 0.0
2017-Jan-25 15:33N 28°07' W 015°24'0 0.0
2017-Jan-25 14:33N 28°07' W 015°24'0 0.0
2017-Jan-25 13:33N 28°07' W 015°24'0 0.0
2017-Jan-25 12:33N 28°07' W 015°24'0 0.0
2017-Jan-25 11:33N 28°07' W 015°24'0 0.0
2017-Jan-25 10:33N 28°07' W 015°24'0 0.0
2017-Jan-25 09:33N 28°07' W 015°24'0 0.0
2017-Jan-25 08:33N 28°07' W 015°24'0 0.0
2017-Jan-25 07:33N 28°07' W 015°24'0 0.0
2017-Jan-25 06:33N 28°07' W 015°24'0 0.0
2017-Jan-25 05:33N 28°07' W 015°24'0 0.0
2017-Jan-25 04:33N 28°07' W 015°24'0 0.0
2017-Jan-25 03:33N 28°07' W 015°24'0 0.0
2017-Jan-25 02:33N 28°07' W 015°24'0 0.0
2017-Jan-25 01:33N 28°07' W 015°24'0 0.0
2017-Jan-25 00:33N 28°07' W 015°24'0 0.0
2017-Jan-24 23:33N 28°07' W 015°24'0 0.0
2017-Jan-24 22:33N 28°07' W 015°24'0 0.0
2017-Jan-24 21:33N 28°07' W 015°24'0 0.0
2017-Jan-24 20:33N 28°07' W 015°24'0 0.0
2017-Jan-24 19:33N 28°07' W 015°24'0 0.0
2017-Jan-24 18:33N 28°07' W 015°24'0 0.0
2017-Jan-24 16:29N 28°07' W 015°24'0 0.0
2017-Jan-24 15:34N 28°07' W 015°24'0 0.0
2017-Jan-24 14:34N 28°07' W 015°24'0 0.0
2017-Jan-24 13:34N 28°07' W 015°24'0 0.0
2017-Jan-24 12:34N 28°07' W 015°24'0 0.0
2017-Jan-24 11:34N 28°07' W 015°24'0 0.0
2017-Jan-24 10:33N 28°07' W 015°24'0 0.0
2017-Jan-24 09:33N 28°07' W 015°24'0 0.0
2017-Jan-24 08:33N 28°07' W 015°24'0 0.0
2017-Jan-24 07:33N 28°07' W 015°24'0 0.0
2017-Jan-24 06:33N 28°07' W 015°24'0 0.0
2017-Jan-24 05:33N 28°07' W 015°24'0 0.0
2017-Jan-24 04:33N 28°07' W 015°24'0 0.0
2017-Jan-24 03:33N 28°07' W 015°24'0 0.0
2017-Jan-24 02:33N 28°07' W 015°24'0 0.0
2017-Jan-24 01:33N 28°07' W 015°24'0 0.0
2017-Jan-24 00:33N 28°07' W 015°24'0 0.0
2017-Jan-23 23:33N 28°07' W 015°24'0 0.0
2017-Jan-23 22:33N 28°07' W 015°24'0 0.0
2017-Jan-23 21:33N 28°07' W 015°24'0 0.0
2017-Jan-21 20:12N 28°07' W 015°24'0 0.0
2017-Jan-21 18:21N 28°07' W 015°24'  

Dump ship's entire track history